createdAt,value
2023-02-13T00:00:49.360Z,157405.03
2023-02-13T00:03:25.063Z,157410.34
2023-02-13T00:05:52.548Z,157422.31
2023-02-13T00:08:20.014Z,157423.63
2023-02-13T00:10:48.019Z,157428.97
2023-02-13T00:13:16.034Z,157436.91
2023-02-13T00:15:43.410Z,157394.44
2023-02-13T00:18:11.377Z,157417.00
2023-02-13T00:20:38.584Z,157406.34
2023-02-13T00:23:06.368Z,157403.72
2023-02-13T00:25:33.812Z,157402.41
2023-02-13T00:28:01.659Z,157398.41
2023-02-13T00:30:29.181Z,157403.72
2023-02-13T00:32:56.983Z,157401.09
2023-02-13T00:35:25.231Z,157413.00
2023-02-13T00:37:53.709Z,157421.00
2023-02-13T00:40:25.127Z,157426.28
2023-02-13T00:42:52.861Z,157415.69
2023-02-13T00:45:20.289Z,157435.59
2023-02-13T00:47:48.446Z,157426.28
2023-02-13T00:50:15.976Z,157421.00
2023-02-13T00:52:43.497Z,157421.00
2023-02-13T00:55:13.120Z,157431.59
2023-02-13T00:57:40.824Z,157430.28
2023-02-13T01:00:08.726Z,157446.19
2023-02-13T01:02:36.330Z,157435.59
2023-02-13T01:05:03.907Z,157447.50
2023-02-13T01:07:31.364Z,157455.53
2023-02-13T01:09:58.429Z,157451.53
2023-02-13T01:12:27.665Z,157454.16
2023-02-13T01:14:54.918Z,157462.13
2023-02-13T01:17:22.682Z,157464.81
2023-02-13T01:19:49.881Z,157479.41
2023-02-13T01:22:17.517Z,157475.41
2023-02-13T01:24:44.835Z,157472.75
2023-02-13T01:27:12.394Z,157464.81
2023-02-13T01:29:39.596Z,157452.84
2023-02-13T01:32:07.148Z,157464.81
2023-02-13T01:34:34.698Z,157456.84
2023-02-13T01:37:02.278Z,157468.75
2023-02-13T01:39:29.593Z,157459.47
2023-02-13T01:41:57.221Z,157478.09
2023-02-13T01:45:12.525Z,157484.72
2023-02-13T01:47:45.758Z,157495.31
2023-02-13T01:50:31.657Z,157496.63
2023-02-13T01:53:08.526Z,157496.63
2023-02-13T01:55:45.155Z,157495.31
2023-02-13T01:58:16.009Z,157516.56
2023-02-13T02:00:50.013Z,157523.22
2023-02-13T02:03:40.355Z,157528.53
2023-02-13T02:06:15.194Z,157517.88
2023-02-13T02:08:42.969Z,157515.25
2023-02-13T02:11:25.758Z,157487.38
2023-02-13T02:13:53.580Z,157505.97
2023-02-13T02:16:32.686Z,157515.25
2023-02-13T02:19:03.500Z,157524.53
2023-02-13T02:21:49.309Z,157515.25
2023-02-13T02:24:54.677Z,157528.53
2023-02-13T02:27:34.187Z,157505.97
2023-02-13T02:30:36.217Z,157531.16
2023-02-13T02:33:12.753Z,157533.84
2023-02-13T02:35:47.900Z,157536.50
2023-02-13T02:38:23.289Z,157527.22
2023-02-13T02:41:02.468Z,157531.16
2023-02-13T02:43:51.123Z,157545.78
2023-02-13T02:46:25.253Z,157548.47
2023-02-13T02:49:13.827Z,157557.75
2023-02-13T02:51:45.542Z,157551.09
2023-02-13T02:54:43.118Z,157537.81
2023-02-13T02:57:23.353Z,157559.06
2023-02-13T03:00:16.722Z,157560.38
2023-02-13T03:03:02.614Z,157564.38
2023-02-13T03:05:50.241Z,157564.38
2023-02-13T03:08:38.339Z,157571.03
2023-02-13T03:11:24.696Z,157568.38
2023-02-13T03:13:53.651Z,157561.75
2023-02-13T03:16:42.046Z,157568.38
2023-02-13T03:19:46.335Z,157561.75
2023-02-13T03:22:39.611Z,157557.75
2023-02-13T03:25:36.324Z,157571.03
2023-02-13T03:28:49.844Z,157560.38
2023-02-13T03:31:43.593Z,157560.38
2023-02-13T03:34:17.530Z,157548.47
2023-02-13T03:37:07.993Z,157557.75
2023-02-13T03:39:56.778Z,157565.69
2023-02-13T03:42:49.212Z,157540.50
2023-02-13T03:45:43.107Z,157533.84
2023-02-13T03:48:31.545Z,157549.78
2023-02-13T03:51:00.594Z,157547.13
2023-02-13T03:53:30.161Z,157548.47
2023-02-13T03:56:18.056Z,157568.38
2023-02-13T03:59:09.564Z,157568.38
2023-02-13T04:01:37.979Z,157564.38
2023-02-13T04:04:05.596Z,157578.97
2023-02-13T04:06:56.402Z,157578.97
2023-02-13T04:09:28.072Z,157576.34
2023-02-13T04:12:19.532Z,157580.31
2023-02-13T04:14:55.212Z,157573.66
2023-02-13T04:17:30.418Z,157564.38
2023-02-13T04:19:58.230Z,157575.03
2023-02-13T04:22:25.519Z,157578.97
2023-02-13T04:24:52.970Z,157586.94
2023-02-13T04:27:20.396Z,157580.31
2023-02-13T04:29:47.974Z,157593.59
2023-02-13T04:32:15.492Z,157584.31
2023-02-13T04:34:43.272Z,157604.25
2023-02-13T04:37:10.652Z,157585.63
2023-02-13T04:39:38.380Z,157581.66
2023-02-13T04:42:05.722Z,157590.94
2023-02-13T04:44:33.432Z,157590.94
2023-02-13T04:47:00.896Z,157592.28
2023-02-13T04:49:28.659Z,157597.59
2023-02-13T04:51:56.055Z,157596.28
2023-02-13T04:54:23.565Z,157605.56
2023-02-13T04:56:50.849Z,157585.63
2023-02-13T04:59:18.640Z,157590.94
2023-02-13T05:01:46.075Z,157586.94
2023-02-13T05:04:16.381Z,157584.31
2023-02-13T05:06:43.855Z,157608.19
2023-02-13T05:09:11.342Z,157605.56
2023-02-13T05:11:38.503Z,157621.47
2023-02-13T05:14:06.164Z,157618.84
2023-02-13T05:16:33.851Z,157613.53
2023-02-13T05:19:01.625Z,157621.47
2023-02-13T05:21:47.442Z,157612.19
2023-02-13T05:24:14.927Z,157620.16
2023-02-13T05:26:42.359Z,157604.25
2023-02-13T05:29:23.216Z,157612.19
2023-02-13T05:31:53.241Z,157605.56
2023-02-13T05:34:21.763Z,157617.53
2023-02-13T05:36:49.591Z,157616.16
2023-02-13T05:39:17.266Z,157601.56
2023-02-13T05:41:45.666Z,157616.16
2023-02-13T05:44:13.650Z,157617.53
2023-02-13T05:46:41.615Z,157608.19
2023-02-13T05:49:10.620Z,157622.81
2023-02-13T05:51:37.849Z,157624.16
2023-02-13T05:54:05.600Z,157634.78
2023-02-13T05:56:32.738Z,157629.44
2023-02-13T05:59:00.492Z,157617.53
2023-02-13T06:01:27.708Z,157624.16
2023-02-13T06:03:57.139Z,157637.41
2023-02-13T06:06:25.926Z,157626.81
2023-02-13T06:08:53.860Z,157618.84
2023-02-13T06:11:21.372Z,157622.81
2023-02-13T06:13:49.132Z,157629.44
2023-02-13T06:16:16.279Z,157624.16
2023-02-13T06:18:43.868Z,157626.81
2023-02-13T06:21:11.100Z,157629.44
2023-02-13T06:23:38.916Z,157628.13
2023-02-13T06:26:08.083Z,157632.13
2023-02-13T06:28:35.992Z,157625.50
2023-02-13T06:31:03.414Z,157636.09
2023-02-13T06:33:31.215Z,157638.78
2023-02-13T06:35:58.485Z,157617.53
2023-02-13T06:38:25.978Z,157641.41
2023-02-13T06:40:53.359Z,157640.09
2023-02-13T06:43:21.129Z,157640.09
2023-02-13T06:45:48.275Z,157610.88
2023-02-13T06:48:15.624Z,157629.44
2023-02-13T06:50:42.938Z,157620.16
2023-02-13T06:53:10.695Z,157633.44
2023-02-13T06:55:39.583Z,157636.09
2023-02-13T06:58:07.003Z,157629.44
2023-02-13T07:00:34.250Z,157653.38
2023-02-13T07:03:04.636Z,157653.38
2023-02-13T07:05:33.353Z,157657.34
2023-02-13T07:08:00.935Z,157650.69
2023-02-13T07:10:28.308Z,157666.69
2023-02-13T07:13:05.264Z,157661.34
2023-02-13T07:15:34.035Z,157679.97
2023-02-13T07:18:02.106Z,157674.63
2023-02-13T07:20:29.656Z,157674.63
2023-02-13T07:23:01.999Z,157699.84
2023-02-13T07:25:29.897Z,157706.50
2023-02-13T07:28:05.101Z,157709.19
2023-02-13T07:30:33.380Z,157722.47
2023-02-13T07:33:04.892Z,157726.44
2023-02-13T07:35:32.522Z,157745.06
2023-02-13T07:38:00.959Z,157726.44
2023-02-13T07:40:28.384Z,157738.41
2023-02-13T07:42:56.632Z,157735.72
2023-02-13T07:45:23.981Z,157749.00
2023-02-13T07:47:51.578Z,157746.38
2023-02-13T07:50:18.899Z,157749.00
2023-02-13T07:52:54.098Z,157726.44
2023-02-13T07:55:21.765Z,157729.13
2023-02-13T07:57:49.746Z,157738.41
2023-02-13T08:00:17.609Z,157733.09
2023-02-13T08:02:45.800Z,157727.75
2023-02-13T08:05:13.153Z,157718.47
2023-02-13T08:07:40.974Z,157733.09
2023-02-13T08:10:27.371Z,157735.72
2023-02-13T08:12:55.395Z,157721.09
2023-02-13T08:15:23.956Z,157715.84
2023-02-13T08:17:51.834Z,157711.81
2023-02-13T08:20:19.196Z,157721.09
2023-02-13T08:22:46.713Z,157722.47
2023-02-13T08:25:14.224Z,157735.72
2023-02-13T08:27:41.855Z,157754.34
2023-02-13T08:30:10.272Z,157737.09
2023-02-13T08:32:53.076Z,157786.25
2023-02-13T08:35:20.812Z,157780.94
2023-02-13T08:37:48.430Z,157799.56
2023-02-13T08:40:15.606Z,157796.84
2023-02-13T08:42:43.818Z,157804.81
2023-02-13T08:45:11.980Z,157819.44
2023-02-13T08:47:40.139Z,157826.09
2023-02-13T08:50:08.156Z,157787.56
2023-02-13T08:52:35.887Z,157795.53
2023-02-13T08:55:03.925Z,157788.91
2023-02-13T08:57:31.727Z,157783.56
2023-02-13T08:59:59.006Z,157783.56
2023-02-13T09:02:26.665Z,157799.56
2023-02-13T09:04:53.894Z,157796.84
2023-02-13T09:07:21.156Z,157787.56
2023-02-13T09:09:48.521Z,157802.19
2023-02-13T09:12:16.163Z,157795.53
2023-02-13T09:14:43.542Z,157791.53
2023-02-13T09:17:11.401Z,157779.59
2023-02-13T09:19:38.695Z,157792.91
2023-02-13T09:22:06.441Z,157810.16
2023-02-13T09:24:33.805Z,157818.13
2023-02-13T09:27:01.377Z,157834.09
2023-02-13T09:29:31.895Z,157836.75
2023-02-13T09:31:59.690Z,157855.38
2023-02-13T09:34:27.390Z,157870.00
2023-02-13T09:36:55.101Z,157868.63
2023-02-13T09:39:22.720Z,157864.66
2023-02-13T09:41:52.524Z,157888.56
2023-02-13T09:44:42.352Z,157895.22
2023-02-13T09:47:28.695Z,157891.25
2023-02-13T09:49:59.344Z,157889.88
2023-02-13T09:52:32.838Z,157881.91
2023-02-13T09:55:04.430Z,157870.00
2023-02-13T09:57:37.603Z,157900.53
2023-02-13T10:00:13.500Z,157908.50
2023-02-13T10:02:57.410Z,157911.16
2023-02-13T10:05:37.174Z,157913.84
2023-02-13T10:08:12.972Z,157911.16
2023-02-13T10:11:17.776Z,157921.81
2023-02-13T10:14:04.090Z,157900.53
2023-02-13T10:16:38.476Z,157911.16
2023-02-13T10:19:32.276Z,157909.84
2023-02-13T10:22:04.945Z,157885.94
2023-02-13T10:24:54.362Z,157876.63
2023-02-13T10:27:26.866Z,157881.91
2023-02-13T10:30:23.695Z,157880.59
2023-02-13T10:33:18.606Z,157879.28
2023-02-13T10:36:24.736Z,157856.69
2023-02-13T10:39:02.986Z,157871.31
2023-02-13T10:41:49.240Z,157861.97
2023-02-13T10:44:42.514Z,157864.66
2023-02-13T10:47:41.055Z,157864.66
2023-02-13T10:50:31.262Z,157872.63
2023-02-13T10:53:41.165Z,157873.94
2023-02-13T10:56:11.287Z,157899.22
2023-02-13T10:58:57.486Z,157908.50
2023-02-13T11:01:34.208Z,157919.19
2023-02-13T11:04:13.532Z,157903.19
2023-02-13T11:06:55.700Z,157927.16
2023-02-13T11:09:24.243Z,157925.81
2023-02-13T11:11:52.414Z,157937.75
2023-02-13T11:14:25.314Z,157941.75
2023-02-13T11:17:06.088Z,157939.06
2023-02-13T11:19:37.378Z,157928.47
2023-02-13T11:22:16.868Z,157919.19
2023-02-13T11:24:54.194Z,157908.50
2023-02-13T11:27:27.364Z,157912.53
2023-02-13T11:29:57.653Z,157900.53
2023-02-13T11:32:35.341Z,157904.56
2023-02-13T11:35:29.497Z,157897.91
2023-02-13T11:38:15.722Z,157881.91
2023-02-13T11:40:48.804Z,157892.56
2023-02-13T11:43:30.620Z,157891.25
2023-02-13T11:46:03.754Z,157861.97
2023-02-13T11:48:31.486Z,157861.97
2023-02-13T11:50:59.420Z,157887.25
2023-02-13T11:53:33.149Z,157880.59
2023-02-13T11:56:15.301Z,157884.59
2023-02-13T11:58:43.312Z,157897.91
2023-02-13T12:01:23.073Z,157908.50
2023-02-13T12:04:18.153Z,157919.19
2023-02-13T12:06:59.561Z,157944.41
2023-02-13T12:09:28.520Z,157947.09
2023-02-13T12:11:59.509Z,157980.28
2023-02-13T12:14:31.037Z,158014.88
2023-02-13T12:17:10.868Z,158008.22
2023-02-13T12:19:45.940Z,158029.50
2023-02-13T12:22:52.485Z,158020.19
2023-02-13T12:25:24.218Z,157997.59
2023-02-13T12:28:27.150Z,158001.56
2023-02-13T12:31:13.123Z,157998.94
2023-02-13T12:34:00.650Z,157994.91
2023-02-13T12:36:53.120Z,158006.91
2023-02-13T12:39:39.328Z,157990.97
2023-02-13T12:42:38.516Z,157996.28
2023-02-13T12:45:18.555Z,157992.28
2023-02-13T12:48:11.914Z,157990.97
2023-02-13T12:50:46.474Z,157978.97
2023-02-13T12:53:39.845Z,157996.28
2023-02-13T12:56:19.514Z,158005.59
2023-02-13T12:59:10.081Z,157992.28
2023-02-13T13:02:09.619Z,158030.88
2023-02-13T13:05:14.312Z,158057.41
2023-02-13T13:08:17.638Z,158077.38
2023-02-13T13:10:44.919Z,158094.69
2023-02-13T13:13:24.389Z,158123.94
2023-02-13T13:16:16.576Z,158133.25
2023-02-13T13:18:44.555Z,158171.91
2023-02-13T13:21:14.569Z,158177.19
2023-02-13T13:23:44.601Z,158163.88
2023-02-13T13:26:15.166Z,158161.25
2023-02-13T13:28:44.370Z,158155.91
2023-02-13T13:31:13.876Z,158138.59
2023-02-13T13:33:44.465Z,158139.91
2023-02-13T13:36:30.596Z,158110.66
2023-02-13T13:39:04.274Z,158106.63
2023-02-13T13:42:15.347Z,158098.66
2023-02-13T13:44:49.227Z,158094.69
2023-02-13T13:47:41.291Z,158096.03
2023-02-13T13:50:36.078Z,158101.34
2023-02-13T13:53:10.402Z,158089.38
2023-02-13T13:55:50.880Z,158093.31
2023-02-13T13:58:31.678Z,158065.41
2023-02-13T14:01:25.281Z,158073.41
2023-02-13T14:04:02.485Z,158072.06
2023-02-13T14:06:51.894Z,158069.41
2023-02-13T14:09:39.822Z,158049.44
2023-02-13T14:12:25.759Z,158033.50
2023-02-13T14:14:54.285Z,158036.16
2023-02-13T14:17:46.978Z,158033.50
2023-02-13T14:20:22.293Z,158014.88
2023-02-13T14:22:50.171Z,158008.22
2023-02-13T14:25:29.764Z,157989.63
2023-02-13T14:28:05.010Z,158000.25
2023-02-13T14:30:37.245Z,158004.25
2023-02-13T14:33:07.586Z,157996.28
2023-02-13T14:35:37.570Z,157985.63
2023-02-13T14:38:08.277Z,158004.25
2023-02-13T14:40:52.644Z,158000.25
2023-02-13T14:43:27.877Z,158001.56
2023-02-13T14:45:57.198Z,157998.94
2023-02-13T14:48:45.671Z,158005.59
2023-02-13T14:51:37.334Z,157990.97
2023-02-13T14:54:15.438Z,157986.94
2023-02-13T14:56:45.532Z,157988.28
2023-02-13T14:59:23.335Z,157973.66
2023-02-13T15:02:34.278Z,157972.31
2023-02-13T15:05:05.013Z,157975.00
2023-02-13T15:07:37.403Z,157977.66
2023-02-13T15:10:25.727Z,157981.66
2023-02-13T15:13:01.341Z,157977.66
2023-02-13T15:15:38.358Z,157969.69
2023-02-13T15:18:10.184Z,157969.69
2023-02-13T15:20:40.219Z,157972.31
2023-02-13T15:23:07.754Z,157975.00
2023-02-13T15:25:39.644Z,157959.03
2023-02-13T15:28:20.170Z,157947.09
2023-02-13T15:31:00.251Z,157943.09
2023-02-13T15:33:33.114Z,157956.38
2023-02-13T15:36:04.766Z,157952.38
2023-02-13T15:38:36.623Z,157960.41
2023-02-13T15:41:23.404Z,157964.34
2023-02-13T15:43:58.302Z,157936.44
2023-02-13T15:46:42.171Z,157936.44
2023-02-13T15:49:15.626Z,157940.44
2023-02-13T15:51:44.130Z,157932.47
2023-02-13T15:54:31.440Z,157933.78
2023-02-13T15:57:07.319Z,157944.41
2023-02-13T15:59:38.213Z,157933.78
2023-02-13T16:02:13.066Z,157931.09
2023-02-13T16:04:41.696Z,157919.19
2023-02-13T16:07:12.236Z,157935.13
2023-02-13T16:09:40.107Z,157919.19
2023-02-13T16:12:26.913Z,157915.16
2023-02-13T16:15:02.480Z,157923.13
2023-02-13T16:17:34.489Z,157917.81
2023-02-13T16:20:08.786Z,157913.84
2023-02-13T16:22:44.221Z,157905.88
2023-02-13T16:25:14.687Z,157916.47
2023-02-13T16:27:45.975Z,157924.44
2023-02-13T16:30:42.353Z,157908.50
2023-02-13T16:33:16.292Z,157909.84
2023-02-13T16:35:45.638Z,157908.50
2023-02-13T16:38:33.118Z,157920.50
2023-02-13T16:41:23.840Z,157924.44
2023-02-13T16:43:53.261Z,157916.47
2023-02-13T16:46:30.795Z,157913.84
2023-02-13T16:49:01.495Z,157913.84
2023-02-13T16:51:40.504Z,157904.56
2023-02-13T16:54:11.331Z,157919.19
2023-02-13T16:56:50.039Z,157913.84
2023-02-13T16:59:17.798Z,157889.88
2023-02-13T17:01:45.074Z,157892.56
2023-02-13T17:04:23.723Z,157899.22
2023-02-13T17:06:57.457Z,157885.94
2023-02-13T17:09:24.988Z,157884.59
2023-02-13T17:11:54.165Z,157879.28
2023-02-13T17:14:22.044Z,157884.59
2023-02-13T17:16:49.632Z,157883.28
2023-02-13T17:19:17.258Z,157891.25
2023-02-13T17:21:44.718Z,157896.53
2023-02-13T17:24:17.942Z,157893.91
2023-02-13T17:26:45.354Z,157883.28
2023-02-13T17:29:13.025Z,157885.94
2023-02-13T17:31:40.556Z,157885.94
2023-02-13T17:34:08.322Z,157868.63
2023-02-13T17:36:36.058Z,157884.59
2023-02-13T17:39:03.976Z,157887.25
2023-02-13T17:41:31.445Z,157875.25
2023-02-13T17:43:59.230Z,157888.56
2023-02-13T17:46:26.745Z,157870.00
2023-02-13T17:48:54.421Z,157856.69
2023-02-13T17:51:21.875Z,157865.97
2023-02-13T17:53:50.422Z,157879.28
2023-02-13T17:56:18.023Z,157885.94
2023-02-13T17:58:45.804Z,157887.25
2023-02-13T18:01:13.278Z,157880.59
2023-02-13T18:03:40.779Z,157873.94
2023-02-13T18:06:13.210Z,157872.63
2023-02-13T18:08:41.135Z,157864.66
2023-02-13T18:11:12.380Z,157870.00
2023-02-13T18:13:44.180Z,157861.97
2023-02-13T18:16:11.748Z,157846.03
2023-02-13T18:18:39.519Z,157842.06
2023-02-13T18:21:06.919Z,157830.09
2023-02-13T18:23:34.632Z,157839.38
2023-02-13T18:26:10.291Z,157826.09
2023-02-13T18:28:38.207Z,157830.09
2023-02-13T18:31:05.733Z,157828.78
2023-02-13T18:33:33.363Z,157828.78
2023-02-13T18:36:02.656Z,157819.44
2023-02-13T18:38:30.444Z,157816.81
2023-02-13T18:40:58.206Z,157820.81
2023-02-13T18:43:26.123Z,157826.09
2023-02-13T18:45:53.705Z,157828.78
2023-02-13T18:48:21.455Z,157814.16
2023-02-13T18:50:49.024Z,157815.47
2023-02-13T18:53:16.745Z,157806.19
2023-02-13T18:55:44.029Z,157818.13
2023-02-13T18:58:11.747Z,157822.13
2023-02-13T19:00:39.139Z,157818.13
2023-02-13T19:03:06.680Z,157815.47
2023-02-13T19:05:34.415Z,157807.53
2023-02-13T19:08:02.392Z,157811.47
2023-02-13T19:10:29.760Z,157778.28
2023-02-13T19:12:57.530Z,157800.88
2023-02-13T19:15:24.819Z,157799.56
2023-02-13T19:17:57.271Z,157788.91
2023-02-13T19:20:24.673Z,157795.53
2023-02-13T19:22:52.693Z,157790.22
2023-02-13T19:25:22.122Z,157766.31
2023-02-13T19:27:49.854Z,157794.22
2023-02-13T19:30:17.350Z,157787.56
2023-02-13T19:32:45.188Z,157788.91
2023-02-13T19:35:12.513Z,157779.59
2023-02-13T19:37:44.043Z,157774.28
2023-02-13T19:40:13.551Z,157794.22
2023-02-13T19:42:41.242Z,157749.00
2023-02-13T19:45:10.550Z,157770.28
2023-02-13T19:47:39.166Z,157747.69
2023-02-13T19:50:07.288Z,157759.66
2023-02-13T19:52:34.999Z,157765.00
2023-02-13T19:55:02.514Z,157757.03
2023-02-13T19:57:30.542Z,157767.63
2023-02-13T20:00:01.029Z,157753.03
2023-02-13T20:02:28.940Z,157755.66
2023-02-13T20:04:56.601Z,157738.41
2023-02-13T20:07:24.330Z,157746.38
2023-02-13T20:09:51.666Z,157757.03
2023-02-13T20:12:19.378Z,157750.38
2023-02-13T20:14:46.706Z,157745.06
2023-02-13T20:17:14.475Z,157751.69
2023-02-13T20:19:42.094Z,157745.06
2023-02-13T20:22:09.977Z,157745.06
2023-02-13T20:24:37.519Z,157738.41
2023-02-13T20:27:05.270Z,157739.72
2023-02-13T20:29:33.863Z,157738.41
2023-02-13T20:32:02.236Z,157726.44
2023-02-13T20:34:31.621Z,157735.72
2023-02-13T20:37:05.278Z,157719.78
2023-02-13T20:39:32.668Z,157717.16
2023-02-13T20:42:00.439Z,157707.88
2023-02-13T20:44:29.668Z,157703.88
2023-02-13T20:46:58.723Z,157703.88
2023-02-13T20:49:27.189Z,157707.88
2023-02-13T20:51:54.937Z,157707.88
2023-02-13T20:54:22.305Z,157710.50
2023-02-13T20:56:50.150Z,157709.19
2023-02-13T20:59:17.607Z,157713.13
2023-02-13T21:01:46.743Z,157701.22
2023-02-13T21:04:19.290Z,157687.94
2023-02-13T21:06:47.699Z,157686.56
2023-02-13T21:09:15.812Z,157689.25
2023-02-13T21:11:44.911Z,157679.97
2023-02-13T21:14:13.079Z,157677.28
2023-02-13T21:16:41.855Z,157679.97
2023-02-13T21:19:13.598Z,157678.59
2023-02-13T21:21:44.284Z,157679.97
2023-02-13T21:24:17.646Z,157669.31
2023-02-13T21:26:47.008Z,157675.97
2023-02-13T21:29:14.521Z,157668.00
2023-02-13T21:31:45.137Z,157671.94
2023-02-13T21:34:13.641Z,157670.63
2023-02-13T21:36:41.438Z,157669.31
2023-02-13T21:39:10.252Z,157665.31
2023-02-13T21:41:40.851Z,157666.69
2023-02-13T21:44:08.318Z,157673.31
2023-02-13T21:46:36.168Z,157662.66
2023-02-13T21:49:05.935Z,157658.66
2023-02-13T21:51:35.711Z,157660.03
2023-02-13T21:54:04.599Z,157638.78
2023-02-13T21:56:38.463Z,157633.44
2023-02-13T21:59:06.809Z,157666.69
2023-02-13T22:01:46.787Z,157669.31
2023-02-13T22:04:14.270Z,157654.72
2023-02-13T22:06:41.872Z,157642.72
2023-02-13T22:09:11.953Z,157653.38
2023-02-13T22:11:40.005Z,157646.75
2023-02-13T22:14:10.709Z,157660.03
2023-02-13T22:16:39.448Z,157583.00
2023-02-13T22:19:07.299Z,157649.38
2023-02-13T22:21:36.509Z,157650.69
2023-02-13T22:24:04.170Z,157652.06
2023-02-13T22:26:36.500Z,157644.06
2023-02-13T22:29:06.599Z,157642.72
2023-02-13T22:31:35.192Z,157656.03
2023-02-13T22:34:04.334Z,157656.03
2023-02-13T22:36:35.039Z,157654.72
2023-02-13T22:39:02.540Z,157646.75
2023-02-13T22:41:30.340Z,157632.13
2023-02-13T22:43:57.820Z,157642.72
2023-02-13T22:46:31.206Z,157646.75
2023-02-13T22:48:59.805Z,157649.38
2023-02-13T22:51:31.327Z,157640.09
2023-02-13T22:53:59.264Z,157640.09
2023-02-13T22:56:28.547Z,157645.41
2023-02-13T22:58:55.992Z,157645.41
2023-02-13T23:01:24.981Z,157648.06
2023-02-13T23:03:52.518Z,157625.50
2023-02-13T23:06:21.986Z,157637.41
2023-02-13T23:08:52.798Z,157632.13
2023-02-13T23:11:42.280Z,157640.09
2023-02-13T23:14:10.443Z,157622.81
2023-02-13T23:16:57.847Z,157618.84
2023-02-13T23:19:27.412Z,157628.13
2023-02-13T23:21:55.773Z,157633.44
2023-02-13T23:24:23.058Z,157630.81
2023-02-13T23:26:50.878Z,157637.41
2023-02-13T23:29:18.425Z,157628.13
2023-02-13T23:31:46.232Z,157640.09
2023-02-13T23:34:13.600Z,157626.81
2023-02-13T23:36:41.272Z,157624.16
2023-02-13T23:39:08.628Z,157634.78
2023-02-13T23:41:36.129Z,157624.16
2023-02-13T23:44:03.537Z,157632.13
2023-02-13T23:46:31.193Z,157629.44
2023-02-13T23:48:58.580Z,157629.44
2023-02-13T23:51:26.470Z,157618.84
2023-02-13T23:53:56.356Z,157621.47
2023-02-13T23:56:25.366Z,157626.81
2023-02-13T23:58:53.234Z,157620.16
